sensor_id;sensor_type;location;lat;lon;timestamp;pressure;altitude;pressure_sealevel;temperature;humidity
77013;BME280;67260;53.130;17.982;2024-03-08T00:00:19;102171.02;;;-2.01;75.41
77013;BME280;67260;53.130;17.982;2024-03-08T00:03:15;102170.23;;;-2.05;75.13
77013;BME280;67260;53.130;17.982;2024-03-08T00:05:57;102165.72;;;-2.08;75.26
77013;BME280;67260;53.130;17.982;2024-03-08T00:23:46;102160.14;;;-2.07;75.81
77013;BME280;67260;53.130;17.982;2024-03-08T00:29:42;102162.20;;;-2.10;75.84
77013;BME280;67260;53.130;17.982;2024-03-08T00:32:41;102161.90;;;-2.13;75.75
77013;BME280;67260;53.130;17.982;2024-03-08T00:43:22;102153.64;;;-2.06;76.04
77013;BME280;67260;53.130;17.982;2024-03-08T00:49:36;102156.35;;;-2.10;76.17
77013;BME280;67260;53.130;17.982;2024-03-08T00:53:15;102150.77;;;-2.13;75.99
77013;BME280;67260;53.130;17.982;2024-03-08T00:55:47;102151.80;;;-2.13;76.44
77013;BME280;67260;53.130;17.982;2024-03-08T01:02:14;102148.61;;;-2.12;76.81
77013;BME280;67260;53.130;17.982;2024-03-08T01:05:00;102149.98;;;-2.11;76.52
77013;BME280;67260;53.130;17.982;2024-03-08T01:11:56;102140.39;;;-2.13;76.80
77013;BME280;67260;53.130;17.982;2024-03-08T01:18:27;102136.52;;;-2.12;76.55
77013;BME280;67260;53.130;17.982;2024-03-08T01:29:18;102126.55;;;-2.26;76.63
77013;BME280;67260;53.130;17.982;2024-03-08T01:32:11;102123.46;;;-2.29;76.67
77013;BME280;67260;53.130;17.982;2024-03-08T01:34:39;102125.32;;;-2.32;76.92
77013;BME280;67260;53.130;17.982;2024-03-08T01:38:08;102120.09;;;-2.28;77.08
77013;BME280;67260;53.130;17.982;2024-03-08T01:46:49;102118.61;;;-2.36;76.67
77013;BME280;67260;53.130;17.982;2024-03-08T01:50:21;102118.27;;;-2.39;76.94
77013;BME280;67260;53.130;17.982;2024-03-08T01:53:03;102115.98;;;-2.38;77.09
77013;BME280;67260;53.130;17.982;2024-03-08T01:55:44;102110.88;;;-2.40;76.95
77013;BME280;67260;53.130;17.982;2024-03-08T01:59:00;102107.91;;;-2.43;76.68
77013;BME280;67260;53.130;17.982;2024-03-08T02:06:27;102107.67;;;-2.47;76.85
77013;BME280;67260;53.130;17.982;2024-03-08T02:16:23;102097.92;;;-2.71;76.85
77013;BME280;67260;53.130;17.982;2024-03-08T02:19:09;102095.65;;;-2.74;77.30
77013;BME280;67260;53.130;17.982;2024-03-08T02:28:44;102087.16;;;-2.82;77.38
77013;BME280;67260;53.130;17.982;2024-03-08T02:31:27;102089.48;;;-2.84;77.69
77013;BME280;67260;53.130;17.982;2024-03-08T02:35:11;102085.30;;;-2.83;77.74
77013;BME280;67260;53.130;17.982;2024-03-08T02:40:33;102083.44;;;-2.81;78.08
77013;BME280;67260;53.130;17.982;2024-03-08T03:04:42;102076.46;;;-2.83;78.20
77013;BME280;67260;53.130;17.982;2024-03-08T03:07:10;102078.15;;;-2.83;78.17
77013;BME280;67260;53.130;17.982;2024-03-08T03:09:50;102077.23;;;-2.82;78.39
77013;BME280;67260;53.130;17.982;2024-03-08T03:22:19;102068.20;;;-2.79;78.27
77013;BME280;67260;53.130;17.982;2024-03-08T03:25:05;102065.90;;;-2.78;78.13
77013;BME280;67260;53.130;17.982;2024-03-08T03:27:46;102065.35;;;-2.80;77.82
77013;BME280;67260;53.130;17.982;2024-03-08T03:30:25;102064.58;;;-2.82;77.82
77013;BME280;67260;53.130;17.982;2024-03-08T03:44:02;102066.59;;;-3.08;77.79
77013;BME280;67260;53.130;17.982;2024-03-08T03:46:30;102066.21;;;-3.13;77.81
77013;BME280;67260;53.130;17.982;2024-03-08T03:49:09;102061.40;;;-3.17;77.90
77013;BME280;67260;53.130;17.982;2024-03-08T03:59:22;102058.60;;;-3.26;78.31
77013;BME280;67260;53.130;17.982;2024-03-08T04:09:45;102055.64;;;-3.16;78.08
77013;BME280;67260;53.130;17.982;2024-03-08T04:12:38;102052.48;;;-3.16;78.29
77013;BME280;67260;53.130;17.982;2024-03-08T04:18:20;102051.39;;;-3.09;78.54
77013;BME280;67260;53.130;17.982;2024-03-08T04:20:49;102051.11;;;-3.07;78.45
77013;BME280;67260;53.130;17.982;2024-03-08T04:23:24;102053.38;;;-3.07;78.39
77013;BME280;67260;53.130;17.982;2024-03-08T04:25:58;102050.90;;;-3.07;78.29
77013;BME280;67260;53.130;17.982;2024-03-08T04:28:32;102049.87;;;-3.07;78.61
77013;BME280;67260;53.130;17.982;2024-03-08T04:31:16;102047.30;;;-3.04;78.32
77013;BME280;67260;53.130;17.982;2024-03-08T04:34:32;102047.44;;;-3.07;78.03
77013;BME280;67260;53.130;17.982;2024-03-08T04:37:36;102045.60;;;-3.11;77.92
77013;BME280;67260;53.130;17.982;2024-03-08T04:40:39;102045.29;;;-3.17;77.95
77013;BME280;67260;53.130;17.982;2024-03-08T04:43:26;102044.56;;;-3.23;78.12
77013;BME280;67260;53.130;17.982;2024-03-08T04:49:54;102038.94;;;-3.37;78.38
77013;BME280;67260;53.130;17.982;2024-03-08T04:52:55;102040.46;;;-3.33;78.51
77013;BME280;67260;53.130;17.982;2024-03-08T04:56:02;102035.77;;;-3.33;78.25
77013;BME280;67260;53.130;17.982;2024-03-08T05:06:48;102036.84;;;-3.34;78.08
77013;BME280;67260;53.130;17.982;2024-03-08T05:12:31;102037.44;;;-3.41;78.00
77013;BME280;67260;53.130;17.982;2024-03-08T05:14:59;102034.33;;;-3.44;78.05
77013;BME280;67260;53.130;17.982;2024-03-08T05:20:43;102036.36;;;-3.44;78.72
77013;BME280;67260;53.130;17.982;2024-03-08T05:23:32;102039.09;;;-3.37;78.80
77013;BME280;67260;53.130;17.982;2024-03-08T05:27:21;102041.77;;;-3.29;78.92
77013;BME280;67260;53.130;17.982;2024-03-08T05:34:09;102037.39;;;-3.21;78.18
77013;BME280;67260;53.130;17.982;2024-03-08T05:36:49;102035.48;;;-3.18;78.10
77013;BME280;67260;53.130;17.982;2024-03-08T05:39:20;102035.10;;;-3.14;78.04
77013;BME280;67260;53.130;17.982;2024-03-08T05:42:00;102037.77;;;-3.10;77.92
77013;BME280;67260;53.130;17.982;2024-03-08T05:51:51;102037.10;;;-2.68;77.88
77013;BME280;67260;53.130;17.982;2024-03-08T06:01:13;102039.45;;;-2.17;77.05
77013;BME280;67260;53.130;17.982;2024-03-08T06:04:30;102039.39;;;-1.91;76.42
77013;BME280;67260;53.130;17.982;2024-03-08T06:10:30;102038.02;;;-1.30;75.74
77013;BME280;67260;53.130;17.982;2024-03-08T06:13:56;102037.22;;;-1.13;75.38
77013;BME280;67260;53.130;17.982;2024-03-08T06:23:39;102035.86;;;-0.48;74.74
77013;BME280;67260;53.130;17.982;2024-03-08T07:50:47;102017.92;;;20.34;33.60
77013;BME280;67260;53.130;17.982;2024-03-08T08:06:23;102006.20;;;22.28;28.70
77013;BME280;67260;53.130;17.982;2024-03-08T08:13:06;102002.39;;;22.67;27.13
77013;BME280;67260;53.130;17.982;2024-03-08T08:26:11;101996.16;;;25.25;25.07
77013;BME280;67260;53.130;17.982;2024-03-08T08:28:40;101998.17;;;25.67;23.70
77013;BME280;67260;53.130;17.982;2024-03-08T08:31:07;101996.85;;;25.62;23.76
77013;BME280;67260;53.130;17.982;2024-03-08T08:33:34;101990.79;;;26.04;23.71
77013;BME280;67260;53.130;17.982;2024-03-08T08:39:49;101987.40;;;25.93;21.90
77013;BME280;67260;53.130;17.982;2024-03-08T08:43:25;101983.20;;;25.94;21.70
77013;BME280;67260;53.130;17.982;2024-03-08T08:45:53;101983.61;;;26.29;22.13
77013;BME280;67260;53.130;17.982;2024-03-08T08:48:27;101977.92;;;27.20;21.00
77013;BME280;67260;53.130;17.982;2024-03-08T08:51:06;101978.14;;;27.37;20.52
77013;BME280;67260;53.130;17.982;2024-03-08T08:57:06;101977.36;;;27.44;20.05
77013;BME280;67260;53.130;17.982;2024-03-08T09:00:17;101975.05;;;27.85;19.96
77013;BME280;67260;53.130;17.982;2024-03-08T09:03:30;101967.42;;;28.57;19.22
77013;BME280;67260;53.130;17.982;2024-03-08T09:18:38;101959.73;;;28.38;17.65
77013;BME280;67260;53.130;17.982;2024-03-08T09:32:30;101952.91;;;28.26;16.99
77013;BME280;67260;53.130;17.982;2024-03-08T09:35:08;101952.59;;;27.98;17.18
77013;BME280;67260;53.130;17.982;2024-03-08T09:38:23;101954.77;;;28.03;16.82
77013;BME280;67260;53.130;17.982;2024-03-08T10:10:05;101932.25;;;28.16;15.54
77013;BME280;67260;53.130;17.982;2024-03-08T10:21:29;101924.01;;;27.83;14.83
77013;BME280;67260;53.130;17.982;2024-03-08T10:24:13;101918.30;;;27.72;14.78
77013;BME280;67260;53.130;17.982;2024-03-08T10:27:22;101918.16;;;27.00;15.11
77013;BME280;67260;53.130;17.982;2024-03-08T10:30:23;101917.85;;;27.20;15.49
77013;BME280;67260;53.130;17.982;2024-03-08T10:33:01;101910.61;;;27.47;14.61
77013;BME280;67260;53.130;17.982;2024-03-08T10:35:39;101911.25;;;27.30;14.94
77013;BME280;67260;53.130;17.982;2024-03-08T10:38:14;101908.88;;;27.11;14.44
77013;BME280;67260;53.130;17.982;2024-03-08T10:41:05;101907.26;;;26.76;15.07
77013;BME280;67260;53.130;17.982;2024-03-08T10:50:20;101902.31;;;26.91;15.76
77013;BME280;67260;53.130;17.982;2024-03-08T10:53:19;101901.73;;;27.61;15.40
77013;BME280;67260;53.130;17.982;2024-03-08T10:56:22;101900.24;;;27.42;15.21
77013;BME280;67260;53.130;17.982;2024-03-08T10:58:54;101900.11;;;27.15;14.86
77013;BME280;67260;53.130;17.982;2024-03-08T11:21:28;101872.41;;;16.80;21.50
77013;BME280;67260;53.130;17.982;2024-03-08T11:24:52;101867.65;;;15.09;23.33
77013;BME280;67260;53.130;17.982;2024-03-08T11:27:32;101864.26;;;14.08;25.18
77013;BME280;67260;53.130;17.982;2024-03-08T11:30:13;101864.97;;;13.18;26.04
77013;BME280;67260;53.130;17.982;2024-03-08T11:33:34;101858.30;;;12.43;26.69
77013;BME280;67260;53.130;17.982;2024-03-08T11:37:04;101856.52;;;12.00;27.56
77013;BME280;67260;53.130;17.982;2024-03-08T11:44:10;101845.98;;;10.99;29.72
77013;BME280;67260;53.130;17.982;2024-03-08T11:47:09;101840.08;;;10.72;30.05
77013;BME280;67260;53.130;17.982;2024-03-08T11:50:17;101837.61;;;10.43;30.75
77013;BME280;67260;53.130;17.982;2024-03-08T11:53:08;101833.99;;;10.27;31.66
77013;BME280;67260;53.130;17.982;2024-03-08T12:02:46;101818.27;;;9.68;32.61
77013;BME280;67260;53.130;17.982;2024-03-08T12:06:01;101813.83;;;9.51;33.24
77013;BME280;67260;53.130;17.982;2024-03-08T12:19:05;101805.05;;;9.04;34.47
77013;BME280;67260;53.130;17.982;2024-03-08T12:38:54;101790.44;;;8.75;35.32
77013;BME280;67260;53.130;17.982;2024-03-08T12:45:43;101781.93;;;8.75;36.48
77013;BME280;67260;53.130;17.982;2024-03-08T12:51:50;101775.51;;;8.74;36.72
77013;BME280;67260;53.130;17.982;2024-03-08T13:02:24;101763.52;;;8.75;36.86
77013;BME280;67260;53.130;17.982;2024-03-08T13:08:51;101760.39;;;8.65;36.93
77013;BME280;67260;53.130;17.982;2024-03-08T13:11:36;101755.36;;;8.60;37.35
77013;BME280;67260;53.130;17.982;2024-03-08T13:14:03;101752.95;;;8.56;37.17
77013;BME280;67260;53.130;17.982;2024-03-08T13:16:37;101748.09;;;8.52;37.48
77013;BME280;67260;53.130;17.982;2024-03-08T13:27:41;101738.07;;;8.47;38.39
77013;BME280;67260;53.130;17.982;2024-03-08T13:30:13;101735.09;;;8.45;38.59
77013;BME280;67260;53.130;17.982;2024-03-08T13:32:41;101736.61;;;8.45;38.77
77013;BME280;67260;53.130;17.982;2024-03-08T13:35:12;101732.35;;;8.46;38.97
77013;BME280;67260;53.130;17.982;2024-03-08T13:37:50;101727.88;;;8.46;38.82
77013;BME280;67260;53.130;17.982;2024-03-08T13:40:45;101726.15;;;8.43;38.89
77013;BME280;67260;53.130;17.982;2024-03-08T13:43:29;101722.23;;;8.37;38.80
77013;BME280;67260;53.130;17.982;2024-03-08T13:45:59;101717.76;;;8.34;38.71
77013;BME280;67260;53.130;17.982;2024-03-08T13:48:25;101720.65;;;8.34;38.53
77013;BME280;67260;53.130;17.982;2024-03-08T13:50:52;101717.96;;;8.34;38.69
77013;BME280;67260;53.130;17.982;2024-03-08T13:53:43;101713.09;;;8.35;39.15
77013;BME280;67260;53.130;17.982;2024-03-08T13:56:14;101712.84;;;8.35;39.79
77013;BME280;67260;53.130;17.982;2024-03-08T13:58:42;101708.43;;;8.34;39.37
77013;BME280;67260;53.130;17.982;2024-03-08T14:01:19;101698.15;;;8.29;39.18
77013;BME280;67260;53.130;17.982;2024-03-08T14:07:04;101695.73;;;8.29;39.79
77013;BME280;67260;53.130;17.982;2024-03-08T14:09:30;101691.63;;;8.31;40.05
77013;BME280;67260;53.130;17.982;2024-03-08T14:11:57;101691.33;;;8.30;40.05
77013;BME280;67260;53.130;17.982;2024-03-08T14:14:26;101691.33;;;8.31;40.39
77013;BME280;67260;53.130;17.982;2024-03-08T14:16:52;101689.38;;;8.31;40.82
77013;BME280;67260;53.130;17.982;2024-03-08T14:19:20;101690.23;;;8.31;40.38
77013;BME280;67260;53.130;17.982;2024-03-08T14:21:47;101685.02;;;8.29;40.54
77013;BME280;67260;53.130;17.982;2024-03-08T14:28:49;101683.36;;;8.21;40.36
77013;BME280;67260;53.130;17.982;2024-03-08T14:32:02;101680.84;;;8.19;40.40
77013;BME280;67260;53.130;17.982;2024-03-08T14:35:28;101680.62;;;8.18;40.59
77013;BME280;67260;53.130;17.982;2024-03-08T14:37:56;101676.18;;;8.17;40.64
77013;BME280;67260;53.130;17.982;2024-03-08T14:40:31;101673.02;;;8.14;40.94
77013;BME280;67260;53.130;17.982;2024-03-08T14:43:16;101672.79;;;8.11;40.86
77013;BME280;67260;53.130;17.982;2024-03-08T14:49:02;101669.88;;;8.07;41.19
77013;BME280;67260;53.130;17.982;2024-03-08T15:58:37;101621.02;;;6.81;46.70
77013;BME280;67260;53.130;17.982;2024-03-08T16:01:43;101620.46;;;6.71;47.01
77013;BME280;67260;53.130;17.982;2024-03-08T16:07:30;101622.47;;;6.54;47.33
77013;BME280;67260;53.130;17.982;2024-03-08T16:10:50;101623.23;;;6.46;47.80
77013;BME280;67260;53.130;17.982;2024-03-08T16:13:51;101617.66;;;6.36;48.00
77013;BME280;67260;53.130;17.982;2024-03-08T16:19:50;101620.80;;;6.15;48.70
77013;BME280;67260;53.130;17.982;2024-03-08T16:29:02;101619.02;;;5.87;49.63
77013;BME280;67260;53.130;17.982;2024-03-08T16:34:58;101619.46;;;5.69;49.96
77013;BME280;67260;53.130;17.982;2024-03-08T16:37:28;101618.11;;;5.62;50.58
77013;BME280;67260;53.130;17.982;2024-03-08T16:40:07;101617.98;;;5.54;50.77
77013;BME280;67260;53.130;17.982;2024-03-08T16:50:07;101610.38;;;5.26;51.38
77013;BME280;67260;53.130;17.982;2024-03-08T16:53:55;101610.38;;;5.16;51.31
77013;BME280;67260;53.130;17.982;2024-03-08T17:10:07;101615.90;;;4.70;52.27
77013;BME280;67260;53.130;17.982;2024-03-08T17:29:35;101617.67;;;4.25;53.71
77013;BME280;67260;53.130;17.982;2024-03-08T17:33:27;101618.09;;;4.17;54.13
77013;BME280;67260;53.130;17.982;2024-03-08T17:52:29;101610.94;;;3.85;55.47
77013;BME280;67260;53.130;17.982;2024-03-08T17:59:55;101613.44;;;3.75;55.51
77013;BME280;67260;53.130;17.982;2024-03-08T18:12:20;101605.52;;;3.50;55.99
77013;BME280;67260;53.130;17.982;2024-03-08T18:19:54;101607.34;;;3.40;56.29
77013;BME280;67260;53.130;17.982;2024-03-08T18:36:32;101599.38;;;2.99;57.13
77013;BME280;67260;53.130;17.982;2024-03-08T19:33:11;101596.77;;;1.35;62.81
77013;BME280;67260;53.130;17.982;2024-03-08T19:36:14;101598.33;;;1.27;62.34
77013;BME280;67260;53.130;17.982;2024-03-08T19:39:00;101601.23;;;1.19;62.42
77013;BME280;67260;53.130;17.982;2024-03-08T19:49:39;101605.52;;;0.85;63.06
77013;BME280;67260;53.130;17.982;2024-03-08T20:05:51;101598.85;;;0.56;64.74
77013;BME280;67260;53.130;17.982;2024-03-08T20:08:42;101594.77;;;0.50;64.63
77013;BME280;67260;53.130;17.982;2024-03-08T20:11:52;101591.31;;;0.45;64.81
77013;BME280;67260;53.130;17.982;2024-03-08T20:14:19;101587.19;;;0.42;65.31
77013;BME280;67260;53.130;17.982;2024-03-08T20:17:03;101585.54;;;0.39;65.51
77013;BME280;67260;53.130;17.982;2024-03-08T20:19:36;101586.55;;;0.35;65.35
77013;BME280;67260;53.130;17.982;2024-03-08T20:22:02;101580.77;;;0.28;65.16
77013;BME280;67260;53.130;17.982;2024-03-08T20:24:29;101580.48;;;0.23;65.31
77013;BME280;67260;53.130;17.982;2024-03-08T20:27:07;101577.56;;;0.16;65.28
77013;BME280;67260;53.130;17.982;2024-03-08T20:29:39;101579.67;;;0.09;65.52
77013;BME280;67260;53.130;17.982;2024-03-08T20:32:14;101576.56;;;0.04;65.65
77013;BME280;67260;53.130;17.982;2024-03-08T20:34:41;101574.84;;;-0.01;65.72
77013;BME280;67260;53.130;17.982;2024-03-08T20:37:08;101573.73;;;-0.04;66.24
77013;BME280;67260;53.130;17.982;2024-03-08T20:39:36;101573.81;;;-0.05;66.09
77013;BME280;67260;53.130;17.982;2024-03-08T20:42:28;101573.70;;;-0.06;66.46
77013;BME280;67260;53.130;17.982;2024-03-08T20:44:56;101574.75;;;-0.06;66.31
77013;BME280;67260;53.130;17.982;2024-03-08T20:51:49;101564.11;;;-0.01;67.25
77013;BME280;67260;53.130;17.982;2024-03-08T21:06:24;101559.93;;;-0.24;67.72
77013;BME280;67260;53.130;17.982;2024-03-08T21:23:01;101549.84;;;-0.66;68.36
77013;BME280;67260;53.130;17.982;2024-03-08T21:33:55;101539.81;;;-0.76;69.05
77013;BME280;67260;53.130;17.982;2024-03-08T21:36:27;101538.27;;;-0.78;68.86
77013;BME280;67260;53.130;17.982;2024-03-08T21:39:01;101540.66;;;-0.82;68.77
77013;BME280;67260;53.130;17.982;2024-03-08T21:41:41;101537.67;;;-0.87;69.00
77013;BME280;67260;53.130;17.982;2024-03-08T21:44:08;101535.33;;;-0.90;69.24
77013;BME280;67260;53.130;17.982;2024-03-08T21:46:34;101535.60;;;-0.91;69.47
77013;BME280;67260;53.130;17.982;2024-03-08T21:49:14;101534.38;;;-0.94;69.46
77013;BME280;67260;53.130;17.982;2024-03-08T21:52:01;101536.08;;;-0.96;69.61
77013;BME280;67260;53.130;17.982;2024-03-08T21:55:04;101537.06;;;-1.00;69.94
77013;BME280;67260;53.130;17.982;2024-03-08T21:57:32;101533.21;;;-1.02;70.08
77013;BME280;67260;53.130;17.982;2024-03-08T22:00:07;101530.29;;;-1.04;70.27
77013;BME280;67260;53.130;17.982;2024-03-08T22:02:56;101530.38;;;-1.08;70.00
77013;BME280;67260;53.130;17.982;2024-03-08T22:05:23;101531.06;;;-1.12;70.36
77013;BME280;67260;53.130;17.982;2024-03-08T22:07:50;101530.16;;;-1.16;70.13
77013;BME280;67260;53.130;17.982;2024-03-08T22:10:19;101525.91;;;-1.20;70.50
77013;BME280;67260;53.130;17.982;2024-03-08T22:12:56;101526.77;;;-1.20;70.87
77013;BME280;67260;53.130;17.982;2024-03-08T22:15:54;101525.25;;;-1.19;70.72
77013;BME280;67260;53.130;17.982;2024-03-08T22:18:20;101526.21;;;-1.20;70.38
77013;BME280;67260;53.130;17.982;2024-03-08T22:20:49;101526.61;;;-1.22;70.31
77013;BME280;67260;53.130;17.982;2024-03-08T22:23:27;101530.45;;;-1.23;71.09
77013;BME280;67260;53.130;17.982;2024-03-08T22:53:00;101523.24;;;-1.39;72.56
77013;BME280;67260;53.130;17.982;2024-03-08T22:55:27;101519.70;;;-1.33;71.96
77013;BME280;67260;53.130;17.982;2024-03-08T22:57:54;101520.08;;;-1.31;71.95
77013;BME280;67260;53.130;17.982;2024-03-08T23:00:30;101519.96;;;-1.32;71.79
77013;BME280;67260;53.130;17.982;2024-03-08T23:03:30;101516.86;;;-1.32;71.63
77013;BME280;67260;53.130;17.982;2024-03-08T23:06:09;101514.40;;;-1.32;72.04
77013;BME280;67260;53.130;17.982;2024-03-08T23:08:39;101514.05;;;-1.29;71.93
77013;BME280;67260;53.130;17.982;2024-03-08T23:11:07;101518.38;;;-1.27;72.12
77013;BME280;67260;53.130;17.982;2024-03-08T23:13:39;101516.61;;;-1.26;71.60
77013;BME280;67260;53.130;17.982;2024-03-08T23:16:19;101515.71;;;-1.28;71.73
77013;BME280;67260;53.130;17.982;2024-03-08T23:18:47;101514.23;;;-1.29;71.71
77013;BME280;67260;53.130;17.982;2024-03-08T23:22:01;101513.21;;;-1.32;71.88
77013;BME280;67260;53.130;17.982;2024-03-08T23:24:27;101508.26;;;-1.36;71.73
77013;BME280;67260;53.130;17.982;2024-03-08T23:26:57;101503.02;;;-1.38;72.31
77013;BME280;67260;53.130;17.982;2024-03-08T23:29:23;101505.98;;;-1.38;72.45
77013;BME280;67260;53.130;17.982;2024-03-08T23:31:52;101505.02;;;-1.37;72.20
77013;BME280;67260;53.130;17.982;2024-03-08T23:34:20;101505.46;;;-1.41;71.94
77013;BME280;67260;53.130;17.982;2024-03-08T23:36:49;101508.08;;;-1.48;71.64
77013;BME280;67260;53.130;17.982;2024-03-08T23:39:19;101504.73;;;-1.54;72.05
77013;BME280;67260;53.130;17.982;2024-03-08T23:41:50;101506.59;;;-1.58;72.19
77013;BME280;67260;53.130;17.982;2024-03-08T23:44:19;101503.63;;;-1.63;72.26
77013;BME280;67260;53.130;17.982;2024-03-08T23:46:45;101504.06;;;-1.67;72.17
77013;BME280;67260;53.130;17.982;2024-03-08T23:49:14;101501.70;;;-1.70;72.52
77013;BME280;67260;53.130;17.982;2024-03-08T23:51:46;101508.00;;;-1.74;72.22
77013;BME280;67260;53.130;17.982;2024-03-08T23:54:12;101503.32;;;-1.76;72.64
77013;BME280;67260;53.130;17.982;2024-03-08T23:56:39;101504.20;;;-1.79;72.74
77013;BME280;67260;53.130;17.982;2024-03-08T23:59:07;101502.44;;;-1.81;72.53
